Shanghai Express — DPCK — position and weather

sailwx.info

Track history (hours):
 
Tides and Currents Weather Stations Pressure Air Temp Water Temp Dewpoint Dewpoint Depression Visibility Wind Speed Wind Dir Waves Ship Positions

Shanghai Express

Last reported at 2017-Jun-27 20:13 UTC. Time now 2017-Jun-27 20:59 UTC.
Position N 33°46' W 118°16'.

Length 320.6 m; beam 42.8 m; draft 14.5 m.

Type: Ship. MMSI: 211367460.

Date/timePositionNaut miles runAvg speedWind from/ knotsBaromVisibWave heightAir tempDewpointWater temp
2017-Jun-27 20:13N 33°46' W 118°16'0 0.0
2017-Jun-27 19:58N 33°46' W 118°16'5 0.6
2017-Jun-27 11:04N 33°41' W 118°14'0 8.2
2017-Jun-27 11:00N 33°40' W 118°14'4 8.7
2017-Jun-27 10:30N 33°36' W 118°16'5 9.7
2017-Jun-27 10:00N 33°36' W 118°22'611.5
2017-Jun-27 09:30N 33°40' W 118°28'611.4
2017-Jun-27 08:56N 33°43' W 118°35'511.6
2017-Jun-27 08:29N 33°45' W 118°40'611.9
2017-Jun-27 08:00N 33°48' W 118°46'611.7
2017-Jun-27 07:30N 33°51' W 118°52'611.5
2017-Jun-27 07:00N 33°54' W 118°58'611.6
2017-Jun-27 06:29N 33°57' W 119°05'815.6
2017-Jun-27 06:01N 34°01' W 119°12'918.4
2017-Jun-27 05:30N 34°04' W 119°23'918.5
2017-Jun-27 05:01N 34°06' W 119°33'1019.1
2017-Jun-27 04:30N 34°09' W 119°45'1019.0
2017-Jun-27 03:59N 34°12' W 119°56'918.8
2017-Jun-27 03:29N 34°14' W 120°07'918.3
2017-Jun-27 03:00N 34°16' W 120°17'918.3
2017-Jun-27 02:31N 34°19' W 120°28'918.3
2017-Jun-27 02:00N 34°21' W 120°39'918.4
2017-Jun-27 01:31N 34°24' W 120°50'918.3
2017-Jun-27 01:00N 34°22' W 121°01'918.0
2017-Jun-27 00:30N 34°20' W 121°11'918.0
2017-Jun-27 00:00N 34°18' W 121°22'918.1
2017-Jun-26 23:30N 34°16' W 121°33'918.4
2017-Jun-26 23:00N 34°14' W 121°43'918.6
2017-Jun-26 22:30N 34°12' W 121°55'918.4
2017-Jun-26 22:01N 34°10' W 122°05'918.4
2017-Jun-26 21:30N 34°08' W 122°16'918.6
2017-Jun-26 21:00N 34°06' W 122°27'918.9
2017-Jun-26 20:30N 34°04' W 122°38'918.6
2017-Jun-26 20:00N 34°01' W 122°49'1218.9
2017-Jun-26 19:22N 33°59' W 123°03'718.6
2017-Jun-26 18:58N 33°57' W 123°12'918.5
2017-Jun-26 18:29N 33°55' W 123°22'1118.6
2017-Jun-26 17:53N 33°53' W 123°35'718.6
2017-Jun-26 17:30N 33°51' W 123°44'  
2017-Jun-24 00:00N 42°24' W 149°36'51421.4 330 / 191028.010.8 12.5 7.812.0
2017-Jun-23 00:00N 44°12' W 161°06'96421.4 020 / 181026.510.8 10.5 6.610.0
2017-Jun-21 03:00N 44°12' E 176°30'26021.7 170 / 201021.010.8 10.0 8.1 9.0
2017-Jun-20 15:00N 43°24' E 170°36'25821.5 170 / 251017.0 0.3 9.0 7.1 8.0
2017-Jun-20 03:00N 42°24' E 164°54'52421.8 160 / 171017.0 0.1 9.0 9.0 8.0
2017-Jun-19 03:00N 39°30' E 154°00'   120 / 151016.010.8 14.510.115.0
Track history (hours):
 
Tides and Currents Weather Stations Pressure Air Temp Water Temp Dewpoint Dewpoint Depression Visibility Wind Speed Wind Dir Waves Ship Positions

Shanghai Express

Last reported at 2017-Jun-27 20:13 UTC. Time now 2017-Jun-27 20:59 UTC.
Position N 33°46' W 118°16'.

Length 320.6 m; beam 42.8 m; draft 14.5 m.

Type: Ship. MMSI: 211367460.

Date/timePositionNaut miles runAvg speedWind from/ knotsBaromVisibWave heightAir tempDewpointWater temp
2017-Jun-27 20:13N 33°46' W 118°16'0 0.0
2017-Jun-27 19:58N 33°46' W 118°16'5 0.6
2017-Jun-27 11:04N 33°41' W 118°14'0 8.2
2017-Jun-27 11:00N 33°40' W 118°14'4 8.7
2017-Jun-27 10:30N 33°36' W 118°16'5 9.7
2017-Jun-27 10:00N 33°36' W 118°22'611.5
2017-Jun-27 09:30N 33°40' W 118°28'611.4
2017-Jun-27 08:56N 33°43' W 118°35'511.6
2017-Jun-27 08:29N 33°45' W 118°40'611.9
2017-Jun-27 08:00N 33°48' W 118°46'611.7
2017-Jun-27 07:30N 33°51' W 118°52'611.5
2017-Jun-27 07:00N 33°54' W 118°58'611.6
2017-Jun-27 06:29N 33°57' W 119°05'815.6
2017-Jun-27 06:01N 34°01' W 119°12'918.4
2017-Jun-27 05:30N 34°04' W 119°23'918.5
2017-Jun-27 05:01N 34°06' W 119°33'1019.1
2017-Jun-27 04:30N 34°09' W 119°45'1019.0
2017-Jun-27 03:59N 34°12' W 119°56'918.8
2017-Jun-27 03:29N 34°14' W 120°07'918.3
2017-Jun-27 03:00N 34°16' W 120°17'918.3
2017-Jun-27 02:31N 34°19' W 120°28'918.3
2017-Jun-27 02:00N 34°21' W 120°39'918.4
2017-Jun-27 01:31N 34°24' W 120°50'918.3
2017-Jun-27 01:00N 34°22' W 121°01'918.0
2017-Jun-27 00:30N 34°20' W 121°11'918.0
2017-Jun-27 00:00N 34°18' W 121°22'918.1
2017-Jun-26 23:30N 34°16' W 121°33'918.4
2017-Jun-26 23:00N 34°14' W 121°43'918.6
2017-Jun-26 22:30N 34°12' W 121°55'918.4
2017-Jun-26 22:01N 34°10' W 122°05'918.4
2017-Jun-26 21:30N 34°08' W 122°16'918.6
2017-Jun-26 21:00N 34°06' W 122°27'918.9
2017-Jun-26 20:30N 34°04' W 122°38'918.6
2017-Jun-26 20:00N 34°01' W 122°49'1218.9
2017-Jun-26 19:22N 33°59' W 123°03'718.6
2017-Jun-26 18:58N 33°57' W 123°12'918.5
2017-Jun-26 18:29N 33°55' W 123°22'1118.6
2017-Jun-26 17:53N 33°53' W 123°35'718.6
2017-Jun-26 17:30N 33°51' W 123°44'  
2017-Jun-24 00:00N 42°24' W 149°36'51421.4 330 / 191028.010.8 12.5 7.812.0
2017-Jun-23 00:00N 44°12' W 161°06'96421.4 020 / 181026.510.8 10.5 6.610.0
2017-Jun-21 03:00N 44°12' E 176°30'26021.7 170 / 201021.010.8 10.0 8.1 9.0
2017-Jun-20 15:00N 43°24' E 170°36'25821.5 170 / 251017.0 0.3 9.0 7.1 8.0
2017-Jun-20 03:00N 42°24' E 164°54'52421.8 160 / 171017.0 0.1 9.0 9.0 8.0
2017-Jun-19 03:00N 39°30' E 154°00'   120 / 151016.010.8 14.510.115.0

Dump ship's entire track history